createdAt,value
2018-11-07T00:01:10.158Z,100337.77
2018-11-07T00:03:40.043Z,100334.56
2018-11-07T00:06:25.550Z,100338.06
2018-11-07T00:09:00.171Z,100337.08
2018-11-07T00:11:37.271Z,100339.41
2018-11-07T00:14:06.315Z,100336.92
2018-11-07T00:16:35.234Z,100330.10
2018-11-07T00:19:14.890Z,100330.10
2018-11-07T00:21:44.274Z,100330.80
2018-11-07T00:24:13.133Z,100332.11
2018-11-07T00:26:42.036Z,100332.66
2018-11-07T00:32:15.631Z,100349.06
2018-11-07T00:34:44.550Z,100348.98
2018-11-07T00:37:18.382Z,100357.94
2018-11-07T00:39:47.292Z,100353.56
2018-11-07T00:42:40.798Z,100361.16
2018-11-07T00:45:11.464Z,100369.27
2018-11-07T00:47:41.552Z,100366.30
2018-11-07T00:50:13.190Z,100374.04
2018-11-07T00:52:42.635Z,100369.34
2018-11-07T01:00:59.118Z,100374.00
2018-11-07T01:03:31.745Z,100369.95
2018-11-07T01:06:04.803Z,100371.52
2018-11-07T01:11:36.734Z,100378.22
2018-11-07T01:14:06.798Z,100374.47
2018-11-07T01:16:35.874Z,100381.45
2018-11-07T01:19:11.477Z,100384.45
2018-11-07T01:21:42.480Z,100386.60
2018-11-07T01:24:11.407Z,100374.48
2018-11-07T01:26:53.560Z,100364.16
2018-11-07T01:29:25.592Z,100372.52
2018-11-07T01:31:54.597Z,100366.94
2018-11-07T01:34:28.304Z,100359.41
2018-11-07T01:36:58.189Z,100370.62
2018-11-07T01:39:39.493Z,100371.64
2018-11-07T01:42:20.103Z,100367.67
2018-11-07T01:44:55.096Z,100366.64
2018-11-07T01:47:23.991Z,100355.84
2018-11-07T01:49:52.880Z,100368.80
2018-11-07T01:52:21.744Z,100374.85
2018-11-07T01:54:56.319Z,100369.75
2018-11-07T01:57:38.105Z,100368.87
2018-11-07T02:00:09.121Z,100365.58
2018-11-07T02:02:38.026Z,100358.20
2018-11-07T02:05:06.988Z,100361.08
2018-11-07T02:07:35.928Z,100352.91
2018-11-07T02:10:09.693Z,100351.88
2018-11-07T02:12:46.483Z,100360.13
2018-11-07T02:15:15.388Z,100361.26
2018-11-07T02:17:44.257Z,100358.02
2018-11-07T02:20:18.945Z,100358.98
2018-11-07T02:22:47.832Z,100354.94
2018-11-07T02:25:16.746Z,100364.02
2018-11-07T02:27:45.642Z,100367.14
2018-11-07T02:30:16.612Z,100359.78
2018-11-07T02:32:45.752Z,100365.23
2018-11-07T02:35:14.639Z,100358.02
2018-11-07T02:37:48.515Z,100359.78
2018-11-07T02:40:17.916Z,100366.24
2018-11-07T02:42:46.917Z,100375.28
2018-11-07T02:45:18.996Z,100378.45
2018-11-07T02:47:52.689Z,100375.23
2018-11-07T02:50:21.613Z,100375.27
2018-11-07T02:53:03.759Z,100378.97
2018-11-07T02:55:44.987Z,100378.50
2018-11-07T02:58:13.967Z,100373.06
2018-11-07T03:00:46.117Z,100361.59
2018-11-07T03:03:24.549Z,100347.98
2018-11-07T03:05:57.902Z,100347.91
2018-11-07T03:08:32.793Z,100347.62
2018-11-07T03:13:58.204Z,100349.19
2018-11-07T03:16:35.452Z,100351.31
2018-11-07T03:19:04.696Z,100351.41
2018-11-07T03:21:37.209Z,100358.96
2018-11-07T03:24:13.980Z,100358.83
2018-11-07T03:26:42.864Z,100360.42
2018-11-07T03:29:11.818Z,100345.94
2018-11-07T03:31:40.729Z,100344.33
2018-11-07T03:34:34.016Z,100337.88
2018-11-07T03:37:08.384Z,100330.97
2018-11-07T03:39:38.335Z,100335.64
2018-11-07T03:42:15.383Z,100327.97
2018-11-07T03:44:44.369Z,100325.57
2018-11-07T03:47:13.252Z,100325.18
2018-11-07T03:49:42.142Z,100316.80
2018-11-07T03:52:11.053Z,100316.59
2018-11-07T03:54:39.896Z,100317.55
2018-11-07T04:00:09.622Z,100314.34
2018-11-07T04:02:38.946Z,100304.45
2018-11-07T04:05:09.302Z,100304.83
2018-11-07T04:07:41.511Z,100315.83
2018-11-07T04:10:10.438Z,100316.50
2018-11-07T04:12:39.365Z,100314.34
2018-11-07T04:15:08.831Z,100320.20
2018-11-07T04:17:40.590Z,100323.31
2018-11-07T04:20:21.378Z,100320.57
2018-11-07T04:22:50.216Z,100319.69
2018-11-07T04:25:19.089Z,100328.57
2018-11-07T04:27:47.980Z,100325.88
2018-11-07T04:30:29.754Z,100318.73
2018-11-07T04:32:58.720Z,100322.19
2018-11-07T04:35:27.648Z,100313.08
2018-11-07T04:38:02.138Z,100314.68
2018-11-07T04:40:31.513Z,100320.33
2018-11-07T04:43:03.466Z,100325.13
2018-11-07T04:45:36.002Z,100316.58
2018-11-07T04:48:06.280Z,100317.53
2018-11-07T04:50:48.206Z,100328.57
2018-11-07T04:53:26.899Z,100327.27
2018-11-07T04:55:56.819Z,100322.30
2018-11-07T04:58:37.064Z,100315.35
2018-11-07T05:01:12.896Z,100318.84
2018-11-07T05:03:43.931Z,100319.04
2018-11-07T05:06:14.924Z,100321.42
2018-11-07T05:08:55.971Z,100328.53
2018-11-07T05:11:28.899Z,100328.66
2018-11-07T05:14:02.572Z,100330.08
2018-11-07T05:16:45.784Z,100338.30
2018-11-07T05:19:26.717Z,100340.37
2018-11-07T05:22:03.760Z,100344.33
2018-11-07T05:24:33.687Z,100338.93
2018-11-07T05:27:26.015Z,100337.20
2018-11-07T05:29:55.976Z,100352.64
2018-11-07T05:32:38.574Z,100351.11
2018-11-07T05:35:10.892Z,100345.12
2018-11-07T05:37:45.982Z,100339.66
2018-11-07T05:40:16.995Z,100338.05
2018-11-07T05:42:56.729Z,100341.70
2018-11-07T05:45:32.611Z,100340.48
2018-11-07T05:48:01.592Z,100341.63
2018-11-07T05:50:31.519Z,100337.98
2018-11-07T05:53:00.493Z,100331.67
2018-11-07T05:55:36.619Z,100327.78
2018-11-07T05:58:11.273Z,100332.69
2018-11-07T06:00:43.845Z,100329.91
2018-11-07T06:03:28.878Z,100336.89
2018-11-07T06:05:57.800Z,100339.41
2018-11-07T06:08:26.716Z,100338.95
2018-11-07T06:10:55.656Z,100348.38
2018-11-07T06:13:31.999Z,100345.07
2018-11-07T06:16:09.115Z,100347.59
2018-11-07T06:18:38.009Z,100330.98
2018-11-07T06:21:08.341Z,100338.63
2018-11-07T06:23:51.496Z,100331.55
2018-11-07T06:26:36.655Z,100341.79
2018-11-07T06:29:08.945Z,100332.19
2018-11-07T06:31:41.898Z,100338.01
2018-11-07T06:34:11.907Z,100343.02
2018-11-07T06:36:46.375Z,100344.63
2018-11-07T06:39:21.018Z,100345.17
2018-11-07T06:41:59.547Z,100345.77
2018-11-07T06:44:28.620Z,100349.36
2018-11-07T06:46:59.429Z,100355.10
2018-11-07T06:49:45.406Z,100358.26
2018-11-07T06:52:17.597Z,100365.34
2018-11-07T06:55:01.103Z,100365.05
2018-11-07T07:00:34.015Z,100360.64
2018-11-07T07:03:05.798Z,100359.25
2018-11-07T07:05:35.726Z,100366.30
2018-11-07T07:08:20.739Z,100366.84
2018-11-07T07:10:54.782Z,100375.38
2018-11-07T07:13:25.835Z,100367.08
2018-11-07T07:15:55.818Z,100365.28
2018-11-07T07:18:24.740Z,100360.98
2018-11-07T07:20:57.226Z,100373.20
2018-11-07T07:23:43.093Z,100374.95
2018-11-07T07:26:28.899Z,100380.65
2018-11-07T07:32:04.461Z,100397.02
2018-11-07T07:34:33.432Z,100393.16
2018-11-07T07:37:15.445Z,100393.45
2018-11-07T07:39:49.250Z,100391.36
2018-11-07T07:42:20.316Z,100398.95
2018-11-07T07:44:51.244Z,100390.57
2018-11-07T07:47:26.240Z,100392.02
2018-11-07T07:50:07.117Z,100390.37
2018-11-07T07:52:41.841Z,100386.70
2018-11-07T07:55:14.635Z,100383.08
2018-11-07T07:57:53.430Z,100383.72
2018-11-07T08:00:41.807Z,100386.45
2018-11-07T08:03:11.893Z,100379.33
2018-11-07T08:05:55.540Z,100389.23
2018-11-07T08:08:43.697Z,100381.73
2018-11-07T08:11:16.685Z,100378.72
2018-11-07T08:13:58.434Z,100375.03
2018-11-07T08:16:34.876Z,100377.66
2018-11-07T08:24:57.571Z,100382.16
2018-11-07T08:27:30.850Z,100378.14
2018-11-07T08:35:53.341Z,100376.13
2018-11-07T08:38:22.360Z,100377.30
2018-11-07T08:40:51.274Z,100374.86
2018-11-07T08:46:25.625Z,100376.61
2018-11-07T08:48:58.111Z,100370.98
2018-11-07T08:51:30.797Z,100376.97
2018-11-07T08:54:05.576Z,100370.80
2018-11-07T08:56:37.586Z,100376.52
2018-11-07T08:59:07.677Z,100373.89
2018-11-07T09:01:48.492Z,100368.00
2018-11-07T09:04:29.305Z,100376.95
2018-11-07T09:07:01.352Z,100375.30
2018-11-07T09:09:31.396Z,100374.66
2018-11-07T09:12:03.795Z,100375.33
2018-11-07T09:14:32.734Z,100376.94
2018-11-07T09:17:07.021Z,100377.98
2018-11-07T09:19:39.808Z,100379.25
2018-11-07T09:22:08.711Z,100388.62
2018-11-07T09:24:49.569Z,100385.65
2018-11-07T09:27:18.449Z,100392.72
2018-11-07T09:29:47.313Z,100384.71
2018-11-07T09:32:16.205Z,100380.39
2018-11-07T09:34:46.662Z,100388.81
2018-11-07T09:37:15.579Z,100389.97
2018-11-07T09:39:44.495Z,100398.67
2018-11-07T09:42:24.661Z,100387.94
2018-11-07T09:45:12.090Z,100386.04
2018-11-07T09:47:41.962Z,100389.84
2018-11-07T09:50:13.685Z,100391.44
2018-11-07T09:52:44.029Z,100389.64
2018-11-07T09:58:09.106Z,100381.49
2018-11-07T10:00:42.784Z,100380.38
2018-11-07T10:03:19.465Z,100373.77
2018-11-07T10:05:59.488Z,100377.52
2018-11-07T10:08:47.015Z,100381.03
2018-11-07T10:11:39.620Z,100388.17
2018-11-07T10:14:12.410Z,100381.14
2018-11-07T10:16:42.358Z,100386.38
2018-11-07T10:19:13.305Z,100385.59
2018-11-07T10:21:43.269Z,100391.82
2018-11-07T10:24:31.755Z,100384.84
2018-11-07T10:27:00.779Z,100381.82
2018-11-07T10:29:29.774Z,100385.09
2018-11-07T10:31:58.452Z,100378.45
2018-11-07T10:34:27.382Z,100376.70
2018-11-07T10:36:56.323Z,100372.16
2018-11-07T10:39:35.390Z,100376.22
2018-11-07T10:42:04.269Z,100368.95
2018-11-07T10:44:33.193Z,100367.02
2018-11-07T10:47:02.123Z,100367.27
2018-11-07T10:49:31.026Z,100363.48
2018-11-07T10:52:18.618Z,100367.60
2018-11-07T10:54:47.476Z,100360.66
2018-11-07T10:57:16.360Z,100356.05
2018-11-07T10:59:45.222Z,100357.97
2018-11-07T11:02:26.808Z,100359.30
2018-11-07T11:04:57.785Z,100366.31
2018-11-07T11:07:40.101Z,100365.80
2018-11-07T11:10:09.068Z,100360.48
2018-11-07T11:12:37.917Z,100363.81
2018-11-07T11:15:06.836Z,100360.57
2018-11-07T11:17:39.259Z,100354.95
2018-11-07T11:20:15.756Z,100346.55
2018-11-07T11:22:44.630Z,100351.44
2018-11-07T11:25:13.568Z,100346.56
2018-11-07T11:27:42.438Z,100348.72
2018-11-07T11:30:11.302Z,100336.78
2018-11-07T11:32:40.393Z,100337.06
2018-11-07T11:35:14.060Z,100345.20
2018-11-07T11:37:51.105Z,100338.13
2018-11-07T11:40:23.709Z,100341.94
2018-11-07T11:42:52.559Z,100339.22
2018-11-07T11:45:45.515Z,100337.34
2018-11-07T11:48:27.100Z,100344.38
2018-11-07T11:51:01.434Z,100346.57
2018-11-07T11:53:34.438Z,100334.08
2018-11-07T11:56:03.311Z,100340.59
2018-11-07T11:58:32.227Z,100346.85
2018-11-07T12:01:01.110Z,100341.67
2018-11-07T12:03:30.145Z,100337.08
2018-11-07T12:05:59.653Z,100337.88
2018-11-07T12:08:29.189Z,100333.56
2018-11-07T12:10:58.033Z,100334.65
2018-11-07T12:13:33.094Z,100338.45
2018-11-07T12:16:01.946Z,100332.20
2018-11-07T12:18:30.812Z,100331.65
2018-11-07T12:21:07.002Z,100330.29
2018-11-07T12:23:35.944Z,100334.92
2018-11-07T12:26:04.907Z,100325.14
2018-11-07T12:28:33.824Z,100332.20
2018-11-07T12:31:02.724Z,100321.58
2018-11-07T12:33:38.919Z,100325.13
2018-11-07T12:36:07.981Z,100324.57
2018-11-07T12:38:37.927Z,100332.17
2018-11-07T12:41:12.633Z,100328.37
2018-11-07T12:43:48.510Z,100332.73
2018-11-07T12:46:30.692Z,100324.85
2018-11-07T12:49:12.508Z,100324.58
2018-11-07T12:52:00.500Z,100323.78
2018-11-07T12:54:29.384Z,100330.84
2018-11-07T12:56:58.300Z,100330.02
2018-11-07T12:59:30.268Z,100339.52
2018-11-07T13:01:59.143Z,100340.88
2018-11-07T13:04:28.093Z,100335.17
2018-11-07T13:09:57.481Z,100342.52
2018-11-07T13:12:26.402Z,100347.67
2018-11-07T13:14:59.230Z,100349.59
2018-11-07T13:17:42.864Z,100348.51
2018-11-07T13:20:14.061Z,100356.10
2018-11-07T13:22:43.942Z,100354.74
2018-11-07T13:25:16.021Z,100364.53
2018-11-07T13:27:51.508Z,100368.05
2018-11-07T13:30:26.561Z,100369.14
2018-11-07T13:33:01.417Z,100372.41
2018-11-07T13:35:34.633Z,100385.44
2018-11-07T13:38:05.137Z,100381.91
2018-11-07T13:40:35.465Z,100380.00
2018-11-07T13:43:04.898Z,100389.27
2018-11-07T13:45:37.492Z,100382.71
2018-11-07T13:48:19.139Z,100387.05
2018-11-07T13:50:48.062Z,100388.13
2018-11-07T13:53:20.593Z,100396.55
2018-11-07T13:55:54.408Z,100394.11
2018-11-07T14:01:20.779Z,100410.67
2018-11-07T14:03:55.428Z,100410.92
2018-11-07T14:12:13.492Z,100416.33
2018-11-07T14:14:53.751Z,100424.74
2018-11-07T14:17:22.724Z,100422.86
2018-11-07T14:20:02.569Z,100422.03
2018-11-07T14:22:31.452Z,100429.89
2018-11-07T14:27:54.416Z,100426.91
2018-11-07T14:30:23.204Z,100430.43
2018-11-07T14:33:10.314Z,100430.17
2018-11-07T14:35:57.037Z,100430.14
2018-11-07T14:38:48.857Z,100433.67
2018-11-07T14:41:18.766Z,100423.89
2018-11-07T14:43:53.853Z,100427.92
2018-11-07T14:46:28.359Z,100427.40
2018-11-07T14:49:12.428Z,100434.75
2018-11-07T14:51:42.447Z,100432.52
2018-11-07T14:54:33.935Z,100431.16
2018-11-07T14:57:17.349Z,100431.98
2018-11-07T14:59:47.279Z,100428.70
2018-11-07T15:05:16.723Z,100440.11
2018-11-07T15:07:45.892Z,100443.91
2018-11-07T15:10:20.557Z,100442.56
2018-11-07T15:15:50.145Z,100453.11
2018-11-07T15:21:17.931Z,100464.81
2018-11-07T15:23:58.991Z,100469.12
2018-11-07T15:29:22.274Z,100470.41
2018-11-07T15:31:57.894Z,100489.36
2018-11-07T15:34:30.744Z,100492.81
2018-11-07T15:37:09.596Z,100494.35
2018-11-07T15:39:46.652Z,100491.57
2018-11-07T15:42:15.604Z,100496.64
2018-11-07T15:44:57.523Z,100505.66
2018-11-07T15:47:30.327Z,100502.25
2018-11-07T15:50:05.498Z,100508.95
2018-11-07T15:52:42.224Z,100509.70
2018-11-07T15:55:25.246Z,100515.27
2018-11-07T15:58:06.322Z,100508.19
2018-11-07T16:00:41.739Z,100507.62
2018-11-07T16:03:25.618Z,100508.63
2018-11-07T16:05:54.765Z,100509.04
2018-11-07T16:08:31.788Z,100511.34
2018-11-07T16:11:02.886Z,100509.02
2018-11-07T16:13:37.867Z,100514.05
2018-11-07T16:16:07.061Z,100519.40
2018-11-07T16:18:40.232Z,100515.92
2018-11-07T16:21:15.042Z,100519.84
2018-11-07T16:23:43.901Z,100513.65
2018-11-07T16:26:34.975Z,100520.38
2018-11-07T16:29:11.011Z,100516.91
2018-11-07T16:34:34.189Z,100519.31
2018-11-07T16:37:03.122Z,100521.77
2018-11-07T16:39:31.992Z,100525.08
2018-11-07T16:42:01.082Z,100527.88
2018-11-07T16:44:35.948Z,100528.13
2018-11-07T16:47:05.028Z,100534.99
2018-11-07T16:49:39.235Z,100533.34
2018-11-07T16:52:22.172Z,100534.77
2018-11-07T16:54:53.108Z,100533.90
2018-11-07T16:57:22.117Z,100539.71
2018-11-07T16:59:55.295Z,100543.58
2018-11-07T17:02:25.341Z,100548.98
2018-11-07T17:04:54.298Z,100549.61
2018-11-07T17:07:24.312Z,100550.13
2018-11-07T17:10:02.710Z,100560.53
2018-11-07T17:12:32.618Z,100554.11
2018-11-07T17:15:13.922Z,100561.42
2018-11-07T17:17:42.890Z,100567.30
2018-11-07T17:20:14.038Z,100569.42
2018-11-07T17:22:45.046Z,100576.65
2018-11-07T17:25:26.038Z,100575.89
2018-11-07T17:27:55.468Z,100583.33
2018-11-07T17:30:24.899Z,100583.66
2018-11-07T17:32:59.933Z,100592.86
2018-11-07T17:35:33.001Z,100594.13
2018-11-07T17:38:02.569Z,100598.40
2018-11-07T17:40:36.088Z,100599.79
2018-11-07T17:46:03.243Z,100595.09
2018-11-07T17:48:39.591Z,100596.15
2018-11-07T17:51:09.936Z,100596.05
2018-11-07T17:53:39.482Z,100598.33
2018-11-07T17:56:14.792Z,100599.44
2018-11-07T17:58:48.226Z,100601.50
2018-11-07T18:01:21.880Z,100608.51
2018-11-07T18:03:57.728Z,100612.86
2018-11-07T18:06:26.632Z,100620.97
2018-11-07T18:08:57.586Z,100625.47
2018-11-07T18:11:45.119Z,100623.33
2018-11-07T18:14:14.048Z,100626.91
2018-11-07T18:16:43.002Z,100627.12
2018-11-07T18:19:16.576Z,100625.31
2018-11-07T18:21:46.547Z,100634.27
2018-11-07T18:24:15.405Z,100637.27
2018-11-07T18:26:48.296Z,100641.50
2018-11-07T18:29:30.368Z,100648.05
2018-11-07T18:32:06.920Z,100651.76
2018-11-07T18:34:36.760Z,100651.89
2018-11-07T18:37:06.688Z,100659.87
2018-11-07T18:39:36.900Z,100658.52
2018-11-07T18:42:17.966Z,100662.45
2018-11-07T18:44:50.906Z,100670.66
2018-11-07T18:47:23.908Z,100675.90
2018-11-07T18:49:57.678Z,100669.44
2018-11-07T18:52:30.777Z,100677.09
2018-11-07T18:54:59.780Z,100671.13
2018-11-07T18:57:40.517Z,100678.17
2018-11-07T19:00:21.447Z,100677.41
2018-11-07T19:02:54.838Z,100679.44
2018-11-07T19:05:23.765Z,100686.76
2018-11-07T19:07:59.584Z,100684.98
2018-11-07T19:10:34.283Z,100691.11
2018-11-07T19:13:04.275Z,100693.31
2018-11-07T19:15:37.852Z,100701.00
2018-11-07T19:18:13.518Z,100704.25
2018-11-07T19:20:55.826Z,100705.04
2018-11-07T19:23:29.750Z,100712.16
2018-11-07T19:25:58.655Z,100718.91
2018-11-07T19:28:40.726Z,100717.65
2018-11-07T19:31:13.409Z,100719.18
2018-11-07T19:33:42.316Z,100729.44
2018-11-07T19:36:13.238Z,100728.00
2018-11-07T19:38:42.243Z,100727.53
2018-11-07T19:41:11.273Z,100726.65
2018-11-07T19:43:46.820Z,100730.91
2018-11-07T19:46:30.011Z,100735.64
2018-11-07T19:49:07.013Z,100738.25
2018-11-07T19:51:39.172Z,100739.53
2018-11-07T19:54:08.244Z,100747.31
2018-11-07T19:56:37.193Z,100751.28
2018-11-07T19:59:11.384Z,100752.81
2018-11-07T20:01:40.358Z,100756.27
2018-11-07T20:04:12.610Z,100762.48
2018-11-07T20:06:47.056Z,100770.13
2018-11-07T20:09:23.897Z,100772.37
2018-11-07T20:11:57.318Z,100777.67
2018-11-07T20:14:32.722Z,100782.44
2018-11-07T20:17:09.812Z,100782.06
2018-11-07T20:19:43.301Z,100784.90
2018-11-07T20:22:17.013Z,100781.05
2018-11-07T20:24:47.745Z,100789.16
2018-11-07T20:27:27.343Z,100785.45
2018-11-07T20:30:01.130Z,100789.37
2018-11-07T20:32:33.636Z,100788.20
2018-11-07T20:35:14.036Z,100795.38
2018-11-07T20:38:00.887Z,100804.38
2018-11-07T20:40:37.054Z,100806.44
2018-11-07T20:43:06.480Z,100808.56
2018-11-07T20:45:37.437Z,100796.78
2018-11-07T20:48:08.390Z,100804.68
2018-11-07T20:53:44.176Z,100807.59
2018-11-07T20:56:14.236Z,100810.20
2018-11-07T20:58:45.143Z,100810.86
2018-11-07T21:01:16.104Z,100815.77
2018-11-07T21:03:45.127Z,100821.06
2018-11-07T21:06:19.883Z,100816.46
2018-11-07T21:09:01.761Z,100814.17
2018-11-07T21:11:38.945Z,100818.06
2018-11-07T21:14:08.975Z,100814.52
2018-11-07T21:16:46.059Z,100822.02
2018-11-07T21:19:20.233Z,100828.88
2018-11-07T21:22:07.525Z,100830.78
2018-11-07T21:24:36.584Z,100838.45
2018-11-07T21:27:05.641Z,100844.50
2018-11-07T21:29:37.729Z,100849.61
2018-11-07T21:32:08.686Z,100856.32
2018-11-07T21:34:37.616Z,100859.17
2018-11-07T21:37:09.639Z,100860.28
2018-11-07T21:39:40.553Z,100862.78
2018-11-07T21:42:09.708Z,100866.70
2018-11-07T21:44:42.384Z,100868.54
2018-11-07T21:47:17.472Z,100868.44
2018-11-07T21:49:54.118Z,100864.44
2018-11-07T21:52:25.004Z,100871.09
2018-11-07T21:55:01.504Z,100870.67
2018-11-07T21:57:37.971Z,100880.86
2018-11-07T22:00:12.992Z,100878.53
2018-11-07T22:02:42.157Z,100874.88
2018-11-07T22:05:19.102Z,100870.83
2018-11-07T22:08:00.299Z,100874.48
2018-11-07T22:10:31.449Z,100884.40
2018-11-07T22:13:04.196Z,100896.30
2018-11-07T22:15:38.739Z,100910.86
2018-11-07T22:21:04.943Z,100901.87
2018-11-07T22:23:41.172Z,100909.66
2018-11-07T22:29:03.512Z,100914.30
2018-11-07T22:31:45.140Z,100908.19
2018-11-07T22:34:14.174Z,100901.97
2018-11-07T22:37:01.243Z,100909.91
2018-11-07T22:39:52.672Z,100911.62
2018-11-07T22:42:33.486Z,100922.02
2018-11-07T22:48:06.236Z,100929.31
2018-11-07T22:50:39.668Z,100932.44
2018-11-07T22:53:18.944Z,100939.49
2018-11-07T22:56:01.859Z,100943.38
2018-11-07T22:58:31.860Z,100934.20
2018-11-07T23:01:13.189Z,100934.82
2018-11-07T23:03:42.182Z,100936.66
2018-11-07T23:06:17.778Z,100941.02
2018-11-07T23:09:11.452Z,100932.60
2018-11-07T23:11:47.733Z,100940.30
2018-11-07T23:14:16.762Z,100938.95
2018-11-07T23:16:52.029Z,100942.06
2018-11-07T23:19:23.065Z,100946.45
2018-11-07T23:27:39.645Z,100944.69
2018-11-07T23:30:09.144Z,100949.45
2018-11-07T23:32:38.133Z,100962.04
2018-11-07T23:38:02.232Z,100961.27
2018-11-07T23:40:31.591Z,100972.80
2018-11-07T23:43:00.686Z,100973.38
2018-11-07T23:45:29.620Z,100984.12
2018-11-07T23:47:58.516Z,100986.50
2018-11-07T23:50:31.410Z,100990.13
2018-11-07T23:53:16.961Z,100995.53
2018-11-07T23:55:54.625Z,101004.00
